sensor_id;sensor_type;location;lat;lon;timestamp;temperature;humidity
40636;DHT22;26642;55.766;37.828;2023-11-19T16:09:25;4.60;70.90
40636;DHT22;26642;55.766;37.828;2023-11-19T16:11:54;4.80;75.90
40636;DHT22;26642;55.766;37.828;2023-11-19T16:14:20;4.90;78.00
40636;DHT22;26642;55.766;37.828;2023-11-19T16:16:46;5.00;76.80
40636;DHT22;26642;55.766;37.828;2023-11-19T16:19:12;5.20;78.30
40636;DHT22;26642;55.766;37.828;2023-11-19T16:21:38;5.30;79.50
40636;DHT22;26642;55.766;37.828;2023-11-19T16:24:04;5.40;77.70
40636;DHT22;26642;55.766;37.828;2023-11-19T16:26:31;5.50;74.90
40636;DHT22;26642;55.766;37.828;2023-11-19T16:28:59;5.50;72.10
40636;DHT22;26642;55.766;37.828;2023-11-19T16:31:25;5.60;69.60
40636;DHT22;26642;55.766;37.828;2023-11-19T16:33:51;5.70;67.60
40636;DHT22;26642;55.766;37.828;2023-11-19T16:36:17;5.70;66.00
40636;DHT22;26642;55.766;37.828;2023-11-19T16:38:43;5.70;64.70
40636;DHT22;26642;55.766;37.828;2023-11-19T16:41:10;5.70;63.90
40636;DHT22;26642;55.766;37.828;2023-11-19T16:43:41;5.80;63.20
40636;DHT22;26642;55.766;37.828;2023-11-19T16:46:07;5.80;62.50
40636;DHT22;26642;55.766;37.828;2023-11-19T16:48:33;5.80;61.80
40636;DHT22;26642;55.766;37.828;2023-11-19T16:50:59;5.90;62.00
40636;DHT22;26642;55.766;37.828;2023-11-19T16:53:25;5.90;60.80
40636;DHT22;26642;55.766;37.828;2023-11-19T16:55:52;5.90;60.40
40636;DHT22;26642;55.766;37.828;2023-11-19T16:58:18;5.90;60.00
40636;DHT22;26642;55.766;37.828;2023-11-19T17:00:44;5.90;59.70
40636;DHT22;26642;55.766;37.828;2023-11-19T17:03:11;6.00;59.50
40636;DHT22;26642;55.766;37.828;2023-11-19T17:05:37;6.00;59.20
40636;DHT22;26642;55.766;37.828;2023-11-19T17:08:04;6.00;59.10
40636;DHT22;26642;55.766;37.828;2023-11-19T17:10:30;6.00;59.10
40636;DHT22;26642;55.766;37.828;2023-11-19T17:12:56;6.00;58.60
40636;DHT22;26642;55.766;37.828;2023-11-19T17:15:22;6.00;58.50
40636;DHT22;26642;55.766;37.828;2023-11-19T17:17:48;6.10;58.40
40636;DHT22;26642;55.766;37.828;2023-11-19T17:20:14;6.10;58.30
40636;DHT22;26642;55.766;37.828;2023-11-19T17:22:41;6.10;58.10
40636;DHT22;26642;55.766;37.828;2023-11-19T17:25:08;6.20;57.90
40636;DHT22;26642;55.766;37.828;2023-11-19T17:27:37;6.10;57.80
40636;DHT22;26642;55.766;37.828;2023-11-19T17:30:06;6.20;57.80
40636;DHT22;26642;55.766;37.828;2023-11-19T17:32:32;6.20;57.40
40636;DHT22;26642;55.766;37.828;2023-11-19T17:34:58;6.20;57.20
40636;DHT22;26642;55.766;37.828;2023-11-19T17:37:24;6.20;57.00
40636;DHT22;26642;55.766;37.828;2023-11-19T17:39:50;6.20;56.70
40636;DHT22;26642;55.766;37.828;2023-11-19T17:42:17;6.20;56.70
40636;DHT22;26642;55.766;37.828;2023-11-19T17:44:44;6.20;56.50
40636;DHT22;26642;55.766;37.828;2023-11-19T17:47:10;6.30;56.50
40636;DHT22;26642;55.766;37.828;2023-11-19T17:49:38;6.30;56.30
40636;DHT22;26642;55.766;37.828;2023-11-19T17:52:06;6.30;56.10
40636;DHT22;26642;55.766;37.828;2023-11-19T17:54:32;6.30;56.10
40636;DHT22;26642;55.766;37.828;2023-11-19T17:56:58;6.30;56.00
40636;DHT22;26642;55.766;37.828;2023-11-19T17:59:24;6.30;55.90
40636;DHT22;26642;55.766;37.828;2023-11-19T18:01:51;6.30;55.80
40636;DHT22;26642;55.766;37.828;2023-11-19T18:04:25;6.40;55.70
40636;DHT22;26642;55.766;37.828;2023-11-19T18:06:52;6.40;55.50
40636;DHT22;26642;55.766;37.828;2023-11-19T18:09:18;6.40;55.90
40636;DHT22;26642;55.766;37.828;2023-11-19T18:11:44;6.40;55.20
40636;DHT22;26642;55.766;37.828;2023-11-19T18:14:16;6.40;55.00
40636;DHT22;26642;55.766;37.828;2023-11-19T18:16:42;6.40;54.90
40636;DHT22;26642;55.766;37.828;2023-11-19T18:19:10;6.50;55.00
40636;DHT22;26642;55.766;37.828;2023-11-19T18:21:36;6.50;55.00
40636;DHT22;26642;55.766;37.828;2023-11-19T18:24:02;6.50;54.90
40636;DHT22;26642;55.766;37.828;2023-11-19T18:26:28;6.50;54.80
40636;DHT22;26642;55.766;37.828;2023-11-19T18:28:54;6.50;55.30
40636;DHT22;26642;55.766;37.828;2023-11-19T18:31:21;6.60;54.70
40636;DHT22;26642;55.766;37.828;2023-11-19T18:33:46;6.60;54.70
40636;DHT22;26642;55.766;37.828;2023-11-19T18:36:13;6.60;54.60
40636;DHT22;26642;55.766;37.828;2023-11-19T18:38:40;6.60;54.60
40636;DHT22;26642;55.766;37.828;2023-11-19T18:41:06;6.60;59.90
40636;DHT22;26642;55.766;37.828;2023-11-19T18:43:33;6.80;64.70
40636;DHT22;26642;55.766;37.828;2023-11-19T18:45:59;6.90;67.60
40636;DHT22;26642;55.766;37.828;2023-11-19T18:48:25;7.10;70.50
40636;DHT22;26642;55.766;37.828;2023-11-19T18:50:51;7.30;70.10
40636;DHT22;26642;55.766;37.828;2023-11-19T18:53:18;7.30;67.30
40636;DHT22;26642;55.766;37.828;2023-11-19T18:55:44;7.40;64.80
40636;DHT22;26642;55.766;37.828;2023-11-19T18:58:10;7.40;62.90
40636;DHT22;26642;55.766;37.828;2023-11-19T19:00:36;7.40;64.70
40636;DHT22;26642;55.766;37.828;2023-11-19T19:03:02;7.70;78.10
40636;DHT22;26642;55.766;37.828;2023-11-19T19:05:28;7.80;75.80
40636;DHT22;26642;55.766;37.828;2023-11-19T19:07:54;7.90;74.30
40636;DHT22;26642;55.766;37.828;2023-11-19T19:10:23;7.90;73.30
40636;DHT22;26642;55.766;37.828;2023-11-19T19:12:49;7.90;70.00
40636;DHT22;26642;55.766;37.828;2023-11-19T19:15:15;7.90;67.10
40636;DHT22;26642;55.766;37.828;2023-11-19T19:17:42;7.90;65.00
40636;DHT22;26642;55.766;37.828;2023-11-19T19:20:10;7.90;63.50
40636;DHT22;26642;55.766;37.828;2023-11-19T19:22:36;7.90;62.10
40636;DHT22;26642;55.766;37.828;2023-11-19T19:25:03;7.90;61.00
40636;DHT22;26642;55.766;37.828;2023-11-19T19:27:30;7.80;60.00
40636;DHT22;26642;55.766;37.828;2023-11-19T19:29:56;7.80;59.70
40636;DHT22;26642;55.766;37.828;2023-11-19T19:32:22;7.80;60.10
40636;DHT22;26642;55.766;37.828;2023-11-19T19:34:48;7.80;60.60
40636;DHT22;26642;55.766;37.828;2023-11-19T19:37:14;7.80;60.90
40636;DHT22;26642;55.766;37.828;2023-11-19T19:39:40;7.80;60.80
40636;DHT22;26642;55.766;37.828;2023-11-19T19:42:06;7.80;60.90
40636;DHT22;26642;55.766;37.828;2023-11-19T19:44:35;7.80;60.90
40636;DHT22;26642;55.766;37.828;2023-11-19T19:47:01;7.80;60.80
40636;DHT22;26642;55.766;37.828;2023-11-19T19:49:27;7.80;60.80
40636;DHT22;26642;55.766;37.828;2023-11-19T19:51:55;7.80;60.80
40636;DHT22;26642;55.766;37.828;2023-11-19T19:54:22;7.80;60.90
40636;DHT22;26642;55.766;37.828;2023-11-19T19:56:49;7.90;64.10
40636;DHT22;26642;55.766;37.828;2023-11-19T19:59:15;7.90;65.10
40636;DHT22;26642;55.766;37.828;2023-11-19T20:01:41;7.90;64.00
40636;DHT22;26642;55.766;37.828;2023-11-19T20:04:07;7.90;63.00
40636;DHT22;26642;55.766;37.828;2023-11-19T20:06:37;7.90;62.20
40636;DHT22;26642;55.766;37.828;2023-11-19T20:09:04;7.80;61.40
40636;DHT22;26642;55.766;37.828;2023-11-19T20:11:30;7.90;60.90
40636;DHT22;26642;55.766;37.828;2023-11-19T20:13:59;7.90;60.70
40636;DHT22;26642;55.766;37.828;2023-11-19T20:16:25;7.80;60.20
40636;DHT22;26642;55.766;37.828;2023-11-19T20:18:51;7.80;60.00
40636;DHT22;26642;55.766;37.828;2023-11-19T20:21:17;7.80;59.70
40636;DHT22;26642;55.766;37.828;2023-11-19T20:23:44;7.80;59.60
40636;DHT22;26642;55.766;37.828;2023-11-19T20:26:10;7.70;59.30
40636;DHT22;26642;55.766;37.828;2023-11-19T20:28:38;7.70;59.10
40636;DHT22;26642;55.766;37.828;2023-11-19T20:31:04;7.70;58.90
40636;DHT22;26642;55.766;37.828;2023-11-19T20:33:30;7.70;58.90
40636;DHT22;26642;55.766;37.828;2023-11-19T20:35:56;7.70;58.90
40636;DHT22;26642;55.766;37.828;2023-11-19T20:38:23;7.70;59.10
40636;DHT22;26642;55.766;37.828;2023-11-19T20:40:50;7.70;61.20
40636;DHT22;26642;55.766;37.828;2023-11-19T20:43:16;7.70;61.90
40636;DHT22;26642;55.766;37.828;2023-11-19T20:45:42;7.70;62.50
40636;DHT22;26642;55.766;37.828;2023-11-19T20:48:08;7.70;62.70
40636;DHT22;26642;55.766;37.828;2023-11-19T20:50:36;7.80;63.00
40636;DHT22;26642;55.766;37.828;2023-11-19T20:53:02;7.80;63.00
40636;DHT22;26642;55.766;37.828;2023-11-19T20:55:28;7.80;63.10
40636;DHT22;26642;55.766;37.828;2023-11-19T20:57:54;7.80;63.20
40636;DHT22;26642;55.766;37.828;2023-11-19T21:00:20;7.80;63.20
40636;DHT22;26642;55.766;37.828;2023-11-19T21:02:47;7.80;63.30
40636;DHT22;26642;55.766;37.828;2023-11-19T21:05:14;7.80;63.20
40636;DHT22;26642;55.766;37.828;2023-11-19T21:07:40;7.80;63.20
40636;DHT22;26642;55.766;37.828;2023-11-19T21:10:07;7.80;63.10
40636;DHT22;26642;55.766;37.828;2023-11-19T21:12:33;7.80;62.90
40636;DHT22;26642;55.766;37.828;2023-11-19T21:14:59;7.80;62.90
40636;DHT22;26642;55.766;37.828;2023-11-19T21:17:25;7.80;62.90
40636;DHT22;26642;55.766;37.828;2023-11-19T21:19:51;7.80;62.70
40636;DHT22;26642;55.766;37.828;2023-11-19T21:22:17;7.80;62.90
40636;DHT22;26642;55.766;37.828;2023-11-19T21:24:45;7.80;62.90
40636;DHT22;26642;55.766;37.828;2023-11-19T21:27:12;7.70;63.00
40636;DHT22;26642;55.766;37.828;2023-11-19T21:29:40;7.80;62.90
40636;DHT22;26642;55.766;37.828;2023-11-19T21:32:06;7.70;63.00
40636;DHT22;26642;55.766;37.828;2023-11-19T21:34:32;7.70;62.80
40636;DHT22;26642;55.766;37.828;2023-11-19T21:36:58;7.70;62.80
40636;DHT22;26642;55.766;37.828;2023-11-19T21:39:24;7.80;62.80
40636;DHT22;26642;55.766;37.828;2023-11-19T21:41:50;7.80;62.90
40636;DHT22;26642;55.766;37.828;2023-11-19T21:44:20;7.80;62.90
40636;DHT22;26642;55.766;37.828;2023-11-19T21:46:46;7.70;62.70
40636;DHT22;26642;55.766;37.828;2023-11-19T21:49:12;7.70;62.70
40636;DHT22;26642;55.766;37.828;2023-11-19T21:51:39;7.70;62.70
40636;DHT22;26642;55.766;37.828;2023-11-19T21:54:06;7.80;62.70
40636;DHT22;26642;55.766;37.828;2023-11-19T21:56:32;7.70;62.60
40636;DHT22;26642;55.766;37.828;2023-11-19T21:58:59;7.70;62.60
40636;DHT22;26642;55.766;37.828;2023-11-19T22:01:25;7.70;62.60
40636;DHT22;26642;55.766;37.828;2023-11-19T22:03:51;7.70;62.60
40636;DHT22;26642;55.766;37.828;2023-11-19T22:06:17;7.70;62.50
40636;DHT22;26642;55.766;37.828;2023-11-19T22:08:47;7.70;62.50
40636;DHT22;26642;55.766;37.828;2023-11-19T22:11:13;7.70;63.10
40636;DHT22;26642;55.766;37.828;2023-11-19T22:13:39;7.70;62.40
40636;DHT22;26642;55.766;37.828;2023-11-19T22:16:05;7.70;62.40
40636;DHT22;26642;55.766;37.828;2023-11-19T22:18:33;7.70;62.40
40636;DHT22;26642;55.766;37.828;2023-11-19T22:20:59;7.70;62.40
40636;DHT22;26642;55.766;37.828;2023-11-19T22:23:26;7.70;62.40
40636;DHT22;26642;55.766;37.828;2023-11-19T22:25:52;7.70;62.20
40636;DHT22;26642;55.766;37.828;2023-11-19T22:28:18;7.70;62.10
40636;DHT22;26642;55.766;37.828;2023-11-19T22:30:44;7.70;62.00
40636;DHT22;26642;55.766;37.828;2023-11-19T22:33:10;7.70;62.00
40636;DHT22;26642;55.766;37.828;2023-11-19T22:35:36;7.70;62.20
40636;DHT22;26642;55.766;37.828;2023-11-19T22:38:02;7.60;62.00
40636;DHT22;26642;55.766;37.828;2023-11-19T22:40:28;7.60;62.00
40636;DHT22;26642;55.766;37.828;2023-11-19T22:42:54;7.60;62.10
40636;DHT22;26642;55.766;37.828;2023-11-19T22:45:20;7.70;62.20
40636;DHT22;26642;55.766;37.828;2023-11-19T22:47:46;7.60;62.20
40636;DHT22;26642;55.766;37.828;2023-11-19T22:50:15;7.60;62.10
40636;DHT22;26642;55.766;37.828;2023-11-19T22:52:41;7.60;62.20
40636;DHT22;26642;55.766;37.828;2023-11-19T22:55:08;7.60;62.10
40636;DHT22;26642;55.766;37.828;2023-11-19T22:57:36;7.60;62.30
40636;DHT22;26642;55.766;37.828;2023-11-19T23:00:03;7.60;62.90
40636;DHT22;26642;55.766;37.828;2023-11-19T23:02:35;7.60;62.30
40636;DHT22;26642;55.766;37.828;2023-11-19T23:05:01;7.60;62.30
40636;DHT22;26642;55.766;37.828;2023-11-19T23:07:28;7.50;62.20
40636;DHT22;26642;55.766;37.828;2023-11-19T23:09:54;7.60;62.30
40636;DHT22;26642;55.766;37.828;2023-11-19T23:12:20;7.60;62.30
40636;DHT22;26642;55.766;37.828;2023-11-19T23:14:47;7.60;62.30
40636;DHT22;26642;55.766;37.828;2023-11-19T23:17:13;7.60;62.30
40636;DHT22;26642;55.766;37.828;2023-11-19T23:19:45;7.60;62.50
40636;DHT22;26642;55.766;37.828;2023-11-19T23:22:11;7.60;63.10
40636;DHT22;26642;55.766;37.828;2023-11-19T23:24:37;7.60;62.60
40636;DHT22;26642;55.766;37.828;2023-11-19T23:27:03;7.50;62.60
40636;DHT22;26642;55.766;37.828;2023-11-19T23:29:30;7.60;62.80
40636;DHT22;26642;55.766;37.828;2023-11-19T23:31:56;7.50;62.70
40636;DHT22;26642;55.766;37.828;2023-11-19T23:34:21;7.50;62.70
40636;DHT22;26642;55.766;37.828;2023-11-19T23:36:48;7.60;62.70
40636;DHT22;26642;55.766;37.828;2023-11-19T23:39:14;7.60;62.70
40636;DHT22;26642;55.766;37.828;2023-11-19T23:41:40;7.50;62.70
40636;DHT22;26642;55.766;37.828;2023-11-19T23:44:06;7.50;62.60
40636;DHT22;26642;55.766;37.828;2023-11-19T23:46:32;7.50;62.40
40636;DHT22;26642;55.766;37.828;2023-11-19T23:49:00;7.50;62.60
40636;DHT22;26642;55.766;37.828;2023-11-19T23:51:26;7.50;62.60
40636;DHT22;26642;55.766;37.828;2023-11-19T23:53:52;7.50;62.50
40636;DHT22;26642;55.766;37.828;2023-11-19T23:56:18;7.50;62.40
40636;DHT22;26642;55.766;37.828;2023-11-19T23:58:44;7.50;62.30
